ADDS METAR Data INFO
IDs: Format: Raw Decoded Include TAF

Data at: 1352 UTC 18 Jan 2018

KDRT 181253Z AUTO 11008KT 10SM OVC075 00/M10 A3046 RMK AO2 SLP318 T00001100
KDRT 181153Z AUTO 10008KT 10SM CLR 00/M10 A3046 RMK AO2 SLP318 T00001100 10011 20000 58011
KDRT 181053Z AUTO 10009KT 10SM OVC046 01/M10 A3048 RMK AO2 SLP323 T00061100
KDRT 180953Z AUTO 11009KT 10SM OVC047 01/M11 A3050 RMK AO2 SLP330 T00111106
KDRT 180853Z AUTO 11006KT 10SM OVC047 01/M11 A3050 RMK AO2 SLP329 T00111106 58016
KDRT 180753Z AUTO 11006KT 10SM OVC048 01/M11 A3052 RMK AO2 SLP338 T00111106
KDRT 180653Z AUTO 12007KT 10SM OVC050 01/M10 A3053 RMK AO2 SLP340 T00111100
KDRT 180553Z AUTO 14005KT 10SM FEW055 01/M11 A3054 RMK AO2 SLP346 T00061106 10028 20006 400390006 55005
KDRT 180453Z AUTO 14009KT 10SM OVC050 02/M12 A3054 RMK AO2 SLP344 T00171122
KDRT 180353Z AUTO 12008KT 10SM OVC050 02/M12 A3055 RMK AO2 SLP347 T00171122
KDRT 180253Z AUTO 13006KT 10SM OVC055 02/M11 A3056 RMK AO2 SLP351 T00221111 50001
KDRT 180153Z AUTO 12008KT 10SM OVC055 02/M11 A3056 RMK AO2 SLP353 T00221111
KDRT 180053Z AUTO 12007KT 10SM OVC055 03/M13 A3056 RMK AO2 SLP352 T00281128
KDRT 172353Z AUTO 11005KT 10SM OVC055 03/M13 A3056 RMK AO2 SLP350 T00281128 10039 20017 55000
KDRT 172253Z AUTO 13008KT 10SM OVC055 03/M12 A3055 RMK AO2 SLP347 T00331122
KDRT 172153Z AUTO 12009KT 10SM OVC060 03/M14 A3055 RMK AO2 SLP346 T00331144
KDRT 172053Z AUTO 15008KT 10SM OVC060 03/M14 A3056 RMK AO2 SLP349 T00331144 56036
KDRT 171953Z AUTO 16008KT 10SM OVC060 03/M15 A3058 RMK AO2 SLP357 T00281150
KDRT 171853Z AUTO 14007KT 10SM OVC060 03/M15 A3062 RMK AO2 SLP373 T00281150
KDRT 171753Z AUTO 13006KT 10SM OVC060 02/M16 A3066 RMK AO2 SLP387 T00171161 10022 20006 58006
KDRT 171653Z AUTO 14005KT 10SM OVC060 01/M16 A3070 RMK AO2 SLP398 T00111156
KDRT 171553Z AUTO 11005KT 10SM OVC060 01/M16 A3069 RMK AO2 SLP397 T00061161
KDRT 171453Z AUTO 13004KT 10SM OVC060 01/M16 A3068 RMK AO2 SLP394 T00061161 53010
KDRT 171353Z AUTO 09004KT 10SM OVC060 01/M17 A3067 RMK AO2 SLP390 T00061167
KDRT 171253Z AUTO 00000KT 10SM OVC060 01/M17 A3066 RMK AO2 SLP386 T00061167
KDRT 171153Z AUTO 08004KT 10SM OVC065 01/M17 A3065 RMK AO2 SLP383 T00061172 10006 20006 56009
KDRT 171053Z AUTO 03004KT 10SM OVC070 01/M17 A3066 RMK AO2 SLP384 T00061172
KDRT 170953Z AUTO 03004KT 10SM OVC070 01/M18 A3067 RMK AO2 SLP390 T00061178
KDRT 170853Z AUTO 03006KT 10SM OVC070 01/M18 A3068 RMK AO2 SLP392 T00061183 56013
KDRT 170753Z AUTO 02005KT 10SM OVC065 01/M18 A3069 RMK AO2 SLP396 T00061178
KDRT 170653Z AUTO 01005KT 10SM OVC070 01/M18 A3070 RMK AO2 SLP401 T00061183
KDRT 170553Z AUTO 01005KT 10SM OVC070 01/M18 A3072 RMK AO2 SLP405 T00061178 10017 20006 400831006 50008
KDRT 170453Z AUTO 36004KT 10SM OVC065 01/M17 A3072 RMK AO2 SLP406 T00111167
KDRT 170353Z AUTO 01004KT 10SM OVC060 01/M17 A3071 RMK AO2 SLP402 T00111172
KDRT 170253Z AUTO 02005KT 10SM OVC065 02/M18 A3069 RMK AO2 SLP397 T00171178 53007
KDRT 170153Z AUTO 02007KT 10SM OVC065 02/M18 A3068 RMK AO2 SLP393 T00171178